Strona główna
METAR-TAF:

METAR-TAF

Lotnisko :

Port lotniczy Upington

Upington, Południowa Afryka

Szerokość geograficzna: 28-24S, Długość geograficzna: 021-16E, wysokość: 839 m

Aktualna obserwacja pogody

Raport powstał 45 minut temu, godzina 00:00 UTC
Wiatr 8 kt od południowy zachód
Temperatura 22°C
Wilgotność 43%
Ciśnienie 1015 hPa
Widzialność 10 km lub więcej
Brak chmur poniżej 1500 m i brak chmur cumulonimbus

METAR: FAUP 230000Z 22008KT CAVOK 22/09 Q1015 NOSIG

czas: 02:45 (00:45 UTC)

Prognoza

Raport powstał 2 godziny i 45 minut temu, godzina 22:00 UTC
Prognoza ważna od 23 godzina 00 UTC do 23 godzina 24 UTC
Wiatr 10 kt od południe
Widzialność 10 km lub więcej
Brak chmur poniżej 1500 m i brak chmur cumulonimbus
Stopniowe zmiany
od 23 godzina 03 UTC do 23 godzina 05 UTC
Wiatr 10 kt od wschód

TAF: FAUP 222200Z 2300/2324 18010KT CAVOK TX34/2314Z TN21/2304Z BECMG 2303/2305 10010KT

Obserwacja i prognoza pogody dla ponad 4000 lotnisk (raport METAR i TAF).

Dostępne stacje oznaczono żółtymi i czerwonymi punktami na mapie.

Najedź kursorem aby zobaczyć nazwę stacji.

Kliknij aby zobaczyć obserwacje i prognozy pogody.

Aby zmienić mapę: kliknij na zielony przycisk z czarnym krzyżykiem, aby powiększyć; na zielony przycisk z myślnikiem, aby pomniejszyć; na zielone strzałki, aby przejść do map sąsiednich.


METAR-TAF: